createdAt,value
2022-11-29T00:02:21.770Z,14.50
2022-11-29T00:05:36.545Z,11.73
2022-11-29T00:08:52.577Z,13.77
2022-11-29T00:12:01.216Z,13.40
2022-11-29T00:15:15.553Z,14.07
2022-11-29T00:18:17.353Z,12.65
2022-11-29T00:21:32.637Z,13.43
2022-11-29T00:24:34.415Z,13.80
2022-11-29T00:27:49.550Z,12.53
2022-11-29T00:30:51.486Z,13.80
2022-11-29T00:34:08.578Z,12.90
2022-11-29T00:37:16.582Z,13.30
2022-11-29T00:40:25.202Z,14.02
2022-11-29T00:43:33.569Z,10.23
2022-11-29T00:46:48.584Z,13.37
2022-11-29T00:49:57.246Z,12.43
2022-11-29T00:53:05.597Z,13.15
2022-11-29T00:56:20.588Z,12.65
2022-11-29T00:59:29.594Z,13.70
2022-11-29T01:02:38.257Z,14.67
2022-11-29T01:05:46.615Z,13.25
2022-11-29T01:08:55.317Z,12.82
2022-11-29T01:12:03.595Z,11.38
2022-11-29T01:15:13.906Z,11.37
2022-11-29T01:18:22.590Z,11.30
2022-11-29T01:21:44.574Z,11.25
2022-11-29T01:24:52.554Z,12.32
2022-11-29T01:28:01.234Z,11.65
2022-11-29T01:31:19.587Z,10.93
2022-11-29T01:34:34.682Z,9.97
2022-11-29T01:37:49.598Z,10.85
2022-11-29T01:41:02.892Z,10.88
2022-11-29T01:44:51.613Z,9.10
2022-11-29T01:48:07.584Z,9.87
2022-11-29T01:51:09.437Z,10.50
2022-11-29T01:54:26.579Z,11.00
2022-11-29T01:57:35.587Z,9.65
2022-11-29T02:00:51.571Z,10.32
2022-11-29T02:03:53.886Z,10.47
2022-11-29T02:07:09.709Z,9.50
2022-11-29T02:10:18.579Z,9.60
2022-11-29T02:14:07.193Z,10.68
2022-11-29T02:17:44.641Z,8.80
2022-11-29T02:21:22.611Z,9.27
2022-11-29T02:24:52.637Z,9.53
2022-11-29T02:28:39.640Z,9.52
2022-11-29T02:32:14.611Z,8.95
2022-11-29T02:35:49.632Z,9.68
2022-11-29T02:39:18.722Z,9.00
2022-11-29T02:42:56.180Z,9.37
2022-11-29T02:46:20.632Z,8.35
2022-11-29T02:49:55.590Z,8.52
2022-11-29T02:53:17.061Z,9.23
2022-11-29T02:56:50.610Z,8.50
2022-11-29T03:00:09.630Z,8.90
2022-11-29T03:03:27.349Z,8.80
2022-11-29T03:06:57.609Z,9.00
2022-11-29T03:10:28.361Z,8.68
2022-11-29T03:13:56.631Z,9.77
2022-11-29T03:17:23.626Z,8.77
2022-11-29T03:20:44.615Z,8.57
2022-11-29T03:23:57.263Z,8.70
2022-11-29T03:27:18.662Z,8.50
2022-11-29T03:30:20.870Z,8.37
2022-11-29T03:34:03.667Z,9.30
2022-11-29T03:37:22.613Z,10.45
2022-11-29T03:40:42.258Z,10.25
2022-11-29T03:44:09.630Z,8.95
2022-11-29T03:47:32.681Z,9.30
2022-11-29T03:50:46.629Z,10.60
2022-11-29T03:54:03.552Z,10.63
2022-11-29T03:57:24.641Z,9.90
2022-11-29T04:00:40.642Z,10.43
2022-11-29T04:04:17.595Z,10.40
2022-11-29T04:07:39.435Z,12.47
2022-11-29T04:11:13.779Z,10.30
2022-11-29T04:14:30.804Z,10.35
2022-11-29T04:18:15.605Z,10.77
2022-11-29T04:22:00.686Z,10.67
2022-11-29T04:25:32.654Z,9.97
2022-11-29T04:29:17.703Z,9.95
2022-11-29T04:32:43.427Z,10.27
2022-11-29T04:36:18.626Z,9.27
2022-11-29T04:39:48.705Z,10.07
2022-11-29T04:43:22.678Z,11.27
2022-11-29T04:47:00.639Z,9.70
2022-11-29T04:50:32.322Z,9.38
2022-11-29T04:54:04.702Z,10.13
2022-11-29T04:57:17.797Z,9.97
2022-11-29T05:00:32.651Z,10.07
2022-11-29T05:03:55.446Z,8.75
2022-11-29T05:07:26.943Z,9.20
2022-11-29T05:10:58.713Z,9.23
2022-11-29T05:14:23.438Z,9.13
2022-11-29T05:17:42.657Z,9.00
2022-11-29T05:21:18.062Z,9.65
2022-11-29T05:24:53.711Z,7.75
2022-11-29T05:28:15.438Z,8.32
2022-11-29T05:35:08.714Z,8.67
2022-11-29T05:38:50.733Z,8.68
2022-11-29T05:42:18.684Z,7.37
2022-11-29T05:45:34.977Z,8.82
2022-11-29T05:49:07.711Z,7.90
2022-11-29T05:52:38.729Z,10.17
2022-11-29T05:56:03.717Z,8.60
2022-11-29T05:59:20.752Z,8.02
2022-11-29T06:02:58.825Z,8.68
2022-11-29T06:06:06.974Z,9.40
2022-11-29T06:09:35.774Z,9.20
2022-11-29T06:12:59.722Z,10.05
2022-11-29T06:16:29.825Z,9.45
2022-11-29T06:20:01.886Z,10.55
2022-11-29T06:23:30.717Z,10.90
2022-11-29T06:27:04.851Z,9.33
2022-11-29T06:30:19.746Z,10.48
2022-11-29T06:33:50.673Z,10.02
2022-11-29T06:37:07.163Z,11.10
2022-11-29T06:40:23.822Z,11.27
2022-11-29T06:43:26.233Z,11.00
2022-11-29T06:46:53.763Z,10.02
2022-11-29T06:50:38.834Z,9.50
2022-11-29T06:53:51.681Z,11.68
2022-11-29T06:57:23.722Z,12.27
2022-11-29T07:00:34.779Z,10.07
2022-11-29T07:04:23.130Z,10.23
2022-11-29T07:07:40.802Z,9.27
2022-11-29T07:10:43.820Z,11.15
2022-11-29T07:14:00.744Z,11.37
2022-11-29T07:17:46.720Z,12.47
2022-11-29T07:21:27.722Z,10.73
2022-11-29T07:25:04.906Z,10.73
2022-11-29T07:28:32.868Z,12.32
2022-11-29T07:32:08.831Z,11.77
2022-11-29T07:35:39.743Z,12.47
2022-11-29T07:39:03.880Z,12.13
2022-11-29T07:42:33.051Z,11.05
2022-11-29T07:45:35.702Z,10.65
2022-11-29T07:48:58.502Z,10.70
2022-11-29T07:52:16.758Z,10.10
2022-11-29T07:55:21.327Z,11.88
2022-11-29T07:58:35.808Z,9.63
2022-11-29T08:01:37.666Z,10.82
2022-11-29T08:04:52.718Z,10.33
2022-11-29T08:07:54.503Z,12.03
2022-11-29T08:11:16.699Z,12.80
2022-11-29T08:14:18.539Z,14.13
2022-11-29T08:17:34.779Z,12.43
2022-11-29T08:20:44.326Z,11.57
2022-11-29T08:23:59.703Z,12.03
2022-11-29T08:27:07.840Z,11.10
2022-11-29T08:30:22.727Z,11.30
2022-11-29T08:33:30.766Z,11.70
2022-11-29T08:36:39.290Z,10.97
2022-11-29T08:39:47.790Z,11.83
2022-11-29T08:43:04.801Z,14.60
2022-11-29T08:46:06.845Z,13.40
2022-11-29T08:49:21.825Z,13.20
2022-11-29T08:52:33.874Z,12.77
2022-11-29T08:55:44.798Z,16.27
2022-11-29T08:58:53.377Z,13.95
2022-11-29T09:02:01.848Z,14.02
2022-11-29T09:05:13.118Z,14.35
2022-11-29T09:08:21.794Z,13.10
2022-11-29T09:11:39.734Z,12.20
2022-11-29T09:14:41.589Z,11.05
2022-11-29T09:17:56.854Z,10.70
2022-11-29T09:21:08.050Z,12.35
2022-11-29T09:24:22.718Z,12.03
2022-11-29T09:27:37.842Z,11.67
2022-11-29T09:30:46.703Z,11.85
2022-11-29T09:33:58.276Z,13.00
2022-11-29T09:37:12.835Z,11.75
2022-11-29T09:40:27.573Z,13.03
2022-11-29T09:44:05.738Z,11.73
2022-11-29T09:47:37.746Z,11.95
2022-11-29T09:50:48.348Z,10.55
2022-11-29T09:54:23.778Z,10.98
2022-11-29T09:57:39.810Z,11.00
2022-11-29T10:00:49.628Z,15.53
2022-11-29T10:04:09.758Z,11.45
2022-11-29T10:07:25.832Z,12.48
2022-11-29T10:10:50.842Z,11.95
2022-11-29T10:14:05.781Z,13.97
2022-11-29T10:17:33.482Z,12.17
2022-11-29T10:20:52.130Z,11.12
2022-11-29T10:24:17.844Z,12.43
2022-11-29T10:27:28.793Z,14.80
2022-11-29T10:30:39.007Z,14.10
2022-11-29T10:33:56.930Z,13.90
2022-11-29T10:37:06.837Z,13.40
2022-11-29T10:40:23.477Z,13.65
2022-11-29T10:43:38.826Z,13.95
2022-11-29T10:46:47.818Z,12.33
2022-11-29T10:50:03.985Z,12.83
2022-11-29T10:53:11.483Z,13.55
2022-11-29T10:56:30.844Z,13.75
2022-11-29T10:59:38.867Z,19.10
2022-11-29T11:02:47.819Z,14.13
2022-11-29T11:06:07.858Z,14.73
2022-11-29T11:09:34.845Z,14.68
2022-11-29T11:13:01.751Z,13.73
2022-11-29T11:16:22.876Z,14.95
2022-11-29T11:19:38.271Z,13.43
2022-11-29T11:23:06.874Z,13.80
2022-11-29T11:26:12.923Z,13.32
2022-11-29T11:29:32.906Z,14.10
2022-11-29T11:32:58.451Z,16.62
2022-11-29T11:36:21.014Z,15.77
2022-11-29T11:39:30.941Z,14.70
2022-11-29T11:42:46.878Z,13.77
2022-11-29T11:45:54.301Z,16.60
2022-11-29T11:49:08.868Z,16.65
2022-11-29T11:52:21.250Z,14.63
2022-11-29T11:55:41.888Z,15.63
2022-11-29T11:59:03.988Z,19.62
2022-11-29T12:02:40.686Z,16.90
2022-11-29T12:06:00.817Z,16.20
2022-11-29T12:09:45.864Z,15.70
2022-11-29T12:13:01.926Z,19.77
2022-11-29T12:16:19.867Z,16.08
2022-11-29T12:19:43.114Z,10.32
2022-11-29T12:23:15.978Z,17.58
2022-11-29T12:27:00.008Z,16.67
2022-11-29T12:29:59.149Z,15.67
2022-11-29T12:33:33.843Z,12.02
2022-11-29T12:37:03.831Z,12.27
2022-11-29T12:40:23.780Z,12.52
2022-11-29T12:43:56.108Z,13.50
2022-11-29T12:47:38.405Z,14.10
2022-11-29T12:51:10.276Z,15.55
2022-11-29T12:54:51.847Z,14.52
2022-11-29T12:58:20.867Z,18.95
2022-11-29T13:01:42.599Z,15.80
2022-11-29T13:05:19.895Z,13.63
2022-11-29T13:08:54.931Z,17.87
2022-11-29T13:12:05.603Z,14.98
2022-11-29T13:15:28.875Z,16.37
2022-11-29T13:18:53.490Z,18.47
2022-11-29T13:22:29.945Z,12.77
2022-11-29T13:25:45.954Z,16.17
2022-11-29T13:29:04.946Z,15.52
2022-11-29T13:32:38.959Z,15.32
2022-11-29T13:36:04.916Z,13.93
2022-11-29T13:39:50.217Z,15.13
2022-11-29T13:43:31.989Z,11.82
2022-11-29T13:47:08.911Z,14.02
2022-11-29T13:50:37.510Z,11.65
2022-11-29T13:53:57.273Z,14.10
2022-11-29T13:57:06.510Z,15.70
2022-11-29T14:00:44.511Z,16.17
2022-11-29T14:04:13.898Z,19.20
2022-11-29T14:07:31.956Z,16.23
2022-11-29T14:10:56.863Z,15.90
2022-11-29T14:14:46.435Z,17.40
2022-11-29T14:17:58.872Z,16.42
2022-11-29T14:21:18.817Z,17.27
2022-11-29T14:24:48.126Z,16.23
2022-11-29T14:28:02.273Z,17.30
2022-11-29T14:31:20.214Z,17.07
2022-11-29T14:34:34.087Z,15.52
2022-11-29T14:38:21.290Z,17.75
2022-11-29T14:42:15.887Z,16.08
2022-11-29T14:45:24.751Z,16.90
2022-11-29T14:48:40.938Z,19.20
2022-11-29T14:52:22.933Z,17.12
2022-11-29T14:55:35.757Z,17.08
2022-11-29T14:58:43.939Z,16.30
2022-11-29T15:01:53.794Z,14.97
2022-11-29T15:05:03.994Z,13.43
2022-11-29T15:08:48.940Z,16.05
2022-11-29T15:11:57.930Z,13.95
2022-11-29T15:15:29.954Z,14.68
2022-11-29T15:18:51.742Z,16.40
2022-11-29T15:22:28.919Z,12.77
2022-11-29T15:25:53.920Z,16.12
2022-11-29T15:29:21.906Z,13.60
2022-11-29T15:32:29.180Z,16.90
2022-11-29T15:35:44.970Z,16.13
2022-11-29T15:38:57.131Z,16.83
2022-11-29T15:42:21.954Z,16.15
2022-11-29T15:45:34.476Z,16.95
2022-11-29T15:48:49.031Z,14.38
2022-11-29T15:52:03.888Z,15.00
2022-11-29T15:55:20.997Z,16.50
2022-11-29T15:58:26.287Z,16.42
2022-11-29T16:01:41.926Z,17.60
2022-11-29T16:04:47.068Z,18.52
2022-11-29T16:08:11.038Z,14.43
2022-11-29T16:11:29.959Z,15.50
2022-11-29T16:14:49.783Z,15.77
2022-11-29T16:17:58.979Z,17.87
2022-11-29T16:21:32.900Z,15.52
2022-11-29T16:25:03.042Z,16.30
2022-11-29T16:28:11.925Z,15.33
2022-11-29T16:31:23.702Z,14.57
2022-11-29T16:34:35.954Z,17.12
2022-11-29T16:37:46.487Z,16.10
2022-11-29T16:41:10.295Z,17.27
2022-11-29T16:45:05.052Z,17.07
2022-11-29T16:48:34.979Z,19.33
2022-11-29T16:51:46.145Z,17.27
2022-11-29T16:54:56.021Z,19.20
2022-11-29T16:58:04.618Z,19.03
2022-11-29T17:01:29.981Z,18.77
2022-11-29T17:04:38.740Z,17.80
2022-11-29T17:07:48.079Z,18.33
2022-11-29T17:11:06.201Z,19.85
2022-11-29T17:14:08.474Z,19.17
2022-11-29T17:17:25.079Z,20.23
2022-11-29T17:20:27.205Z,18.58
2022-11-29T17:23:48.970Z,19.25
2022-11-29T17:26:51.081Z,18.27
2022-11-29T17:30:06.163Z,17.30
2022-11-29T17:33:08.038Z,19.00
2022-11-29T17:36:25.970Z,17.58
2022-11-29T17:39:27.766Z,17.40
2022-11-29T17:42:43.074Z,18.45
2022-11-29T17:45:58.070Z,19.00
2022-11-29T17:49:07.998Z,17.13
2022-11-29T17:52:16.634Z,18.42
2022-11-29T17:55:31.111Z,19.33
2022-11-29T17:58:39.981Z,18.98
2022-11-29T18:01:48.874Z,17.97
2022-11-29T18:04:57.098Z,18.13
2022-11-29T18:08:12.141Z,17.80
2022-11-29T18:11:17.233Z,18.20
2022-11-29T18:14:32.083Z,18.15
2022-11-29T18:17:33.899Z,17.93
2022-11-29T18:20:49.003Z,16.90
2022-11-29T18:23:59.468Z,18.27
2022-11-29T18:27:14.069Z,17.15
2022-11-29T18:30:16.213Z,18.52
2022-11-29T18:33:31.039Z,19.53
2022-11-29T18:36:43.982Z,20.73
2022-11-29T18:39:59.022Z,19.35
2022-11-29T18:43:15.015Z,19.92
2022-11-29T18:46:26.122Z,20.05
2022-11-29T18:49:34.612Z,20.40
2022-11-29T18:52:56.000Z,19.93
2022-11-29T18:56:00.834Z,20.27
2022-11-29T18:59:18.983Z,19.60
2022-11-29T19:02:29.098Z,24.52
2022-11-29T19:05:39.014Z,19.65
2022-11-29T19:08:48.158Z,27.80
2022-11-29T19:11:56.713Z,22.03
2022-11-29T19:15:05.994Z,19.37
2022-11-29T19:18:17.771Z,28.55
2022-11-29T19:21:35.090Z,18.65
2022-11-29T19:24:49.991Z,19.00
2022-11-29T19:27:51.905Z,18.77
2022-11-29T19:31:07.099Z,20.88
2022-11-29T19:34:09.129Z,19.02
2022-11-29T19:37:24.002Z,18.67
2022-11-29T19:40:33.031Z,19.47
2022-11-29T19:43:49.203Z,21.20
2022-11-29T19:46:51.099Z,19.83
2022-11-29T19:50:06.047Z,19.12
2022-11-29T19:53:07.985Z,18.80
2022-11-29T19:56:24.034Z,21.47
2022-11-29T19:59:39.048Z,18.53
2022-11-29T20:02:55.046Z,20.23
2022-11-29T20:05:56.939Z,21.10
2022-11-29T20:09:13.063Z,19.40
2022-11-29T20:12:15.529Z,19.30
2022-11-29T20:15:30.037Z,18.20
2022-11-29T20:18:33.190Z,19.33
2022-11-29T20:21:52.151Z,18.30
2022-11-29T20:25:07.006Z,19.17
2022-11-29T20:28:15.630Z,19.07
2022-11-29T20:31:26.150Z,18.23
2022-11-29T20:34:34.923Z,18.30
2022-11-29T20:38:12.033Z,17.27
2022-11-29T20:41:45.002Z,18.95
2022-11-29T20:44:54.645Z,18.20
2022-11-29T20:48:17.019Z,18.87
2022-11-29T20:51:33.289Z,18.00
2022-11-29T20:54:48.085Z,16.73
2022-11-29T20:57:49.979Z,15.93
2022-11-29T21:01:06.032Z,17.20
2022-11-29T21:04:15.865Z,17.60
2022-11-29T21:07:34.027Z,17.62
2022-11-29T21:10:36.641Z,16.67
2022-11-29T21:13:51.051Z,18.15
2022-11-29T21:16:53.239Z,18.43
2022-11-29T21:20:09.065Z,18.43
2022-11-29T21:23:49.131Z,18.50
2022-11-29T21:27:04.081Z,18.12
2022-11-29T21:30:26.081Z,18.62
2022-11-29T21:33:34.735Z,17.57
2022-11-29T21:36:45.038Z,17.13
2022-11-29T21:40:01.051Z,16.35
2022-11-29T21:43:09.699Z,16.77
2022-11-29T21:46:19.108Z,16.35
2022-11-29T21:49:36.123Z,17.03
2022-11-29T21:52:44.753Z,18.37
2022-11-29T21:56:04.092Z,17.75
2022-11-29T21:59:05.941Z,16.87
2022-11-29T22:02:21.165Z,17.70
2022-11-29T22:05:30.062Z,17.03
2022-11-29T22:08:48.047Z,16.80
2022-11-29T22:11:56.742Z,15.80
2022-11-29T22:15:12.048Z,15.75
2022-11-29T22:18:13.974Z,16.52
2022-11-29T22:21:30.077Z,16.80
2022-11-29T22:24:46.482Z,15.13
2022-11-29T22:27:54.673Z,16.30
2022-11-29T22:31:16.978Z,14.93
2022-11-29T22:34:27.126Z,15.88
2022-11-29T22:37:36.143Z,15.70
2022-11-29T22:40:44.682Z,15.57
2022-11-29T22:43:53.085Z,17.48
2022-11-29T22:47:01.751Z,16.60
2022-11-29T22:50:17.129Z,15.95
2022-11-29T22:53:25.815Z,16.77
2022-11-29T22:56:37.122Z,16.13
2022-11-29T22:59:45.776Z,14.75
2022-11-29T23:02:54.065Z,16.30
2022-11-29T23:06:07.659Z,15.63
2022-11-29T23:09:26.054Z,15.33
2022-11-29T23:12:28.253Z,16.27
2022-11-29T23:15:43.070Z,14.75
2022-11-29T23:18:59.054Z,16.98
2022-11-29T23:22:14.112Z,16.58
2022-11-29T23:25:22.760Z,15.70
2022-11-29T23:28:31.118Z,16.33
2022-11-29T23:31:40.381Z,16.50
2022-11-29T23:34:49.239Z,16.67
2022-11-29T23:37:57.575Z,17.37
2022-11-29T23:41:06.114Z,15.70
2022-11-29T23:44:21.115Z,16.90
2022-11-29T23:47:22.983Z,16.58
2022-11-29T23:50:38.267Z,17.33
2022-11-29T23:53:40.709Z,22.45
2022-11-29T23:56:55.167Z,16.10
